Time;durP1;ratioP1;P1;durP2;ratioP2;P2;SDS_P1;SDS_P2;PMS_P1;PMS_P2;Temp;Humidity;BMP_temperature;BMP_pressure;BME280_temperature;BME280_humidity;BME280_pressure;Samples;Min_cycle;Max_cycle;Signal;HPM_P1;HPM_P2
2024/01/17 00:01:58;;;;;;;;;28.00;25.25;;;;;2.51;59.59;99361.81;5117624;27;45310;-80
2024/01/17 00:04:25;;;;;;;;;18.50;18.50;;;;;2.57;59.40;99361.53;5133690;27;45304;-81
2024/01/17 00:06:51;;;;;;;;;27.25;24.75;;;;;2.60;59.55;99356.16;5132613;27;45706;-81
2024/01/17 00:09:16;;;;;;;;;25.50;20.50;;;;;2.65;59.64;99357.69;5117126;27;45518;-81
2024/01/17 00:11:44;;;;;;;;;28.50;22.50;;;;;2.59;59.65;99341.31;5116845;27;45307;-80
2024/01/17 00:14:10;;;;;;;;;24.50;22.75;;;;;2.76;59.39;99356.38;5117382;27;45279;-81
2024/01/17 00:16:36;;;;;;;;;15.75;15.75;;;;;2.81;59.53;99342.09;5117891;27;45370;-81
2024/01/17 00:19:01;;;;;;;;;25.25;21.00;;;;;2.82;59.49;99325.44;5128465;27;45539;-82
2024/01/17 00:21:27;;;;;;;;;34.00;24.75;;;;;2.84;59.64;99323.56;5116954;27;45420;-81
2024/01/17 00:23:53;;;;;;;;;25.00;21.00;;;;;2.83;59.63;99321.88;5118969;27;45403;-81
2024/01/17 00:26:18;;;;;;;;;26.75;23.75;;;;;2.83;59.41;99323.66;5119480;27;45421;-79
2024/01/17 00:28:44;;;;;;;;;20.50;18.75;;;;;2.82;59.56;99309.66;5120105;27;58016;-79
2024/01/17 00:31:09;;;;;;;;;24.50;24.50;;;;;2.69;59.99;99284.03;5100365;27;45350;-80
2024/01/17 00:33:35;;;;;;;;;28.50;22.25;;;;;2.78;59.86;99292.34;5119247;27;45413;-81
2024/01/17 00:36:01;;;;;;;;;26.25;20.25;;;;;2.81;59.80;99297.47;5130638;27;47041;-80
2024/01/17 00:38:26;;;;;;;;;31.50;27.50;;;;;2.77;60.48;99280.16;5117199;27;47149;-81
2024/01/17 00:40:51;;;;;;;;;30.50;22.25;;;;;2.76;60.36;99278.47;5117814;27;45526;-82
2024/01/17 00:43:17;;;;;;;;;27.00;24.75;;;;;2.83;60.35;99273.75;5124162;27;45670;-80
2024/01/17 00:45:43;;;;;;;;;29.25;24.50;;;;;2.88;61.26;99267.41;5126705;27;45521;-80
2024/01/17 00:48:08;;;;;;;;;26.25;22.50;;;;;2.89;61.05;99270.88;5118982;27;45530;-79
2024/01/17 00:50:34;;;;;;;;;28.25;25.00;;;;;2.89;61.11;99258.59;5120748;27;61859;-78
2024/01/17 00:52:59;;;;;;;;;36.00;25.00;;;;;2.79;61.60;99235.44;5123108;27;45406;-80
2024/01/17 00:55:24;;;;;;;;;33.50;26.25;;;;;2.92;61.14;99252.34;5117819;27;45284;-82
2024/01/17 00:57:50;;;;;;;;;28.75;24.50;;;;;2.90;61.48;99239.28;5117301;27;45935;-80
2024/01/17 01:00:15;;;;;;;;;26.50;25.50;;;;;2.96;62.35;99249.50;5117091;27;45427;-82
2024/01/17 01:02:42;;;;;;;;;23.50;22.25;;;;;2.91;62.62;99234.88;5121028;27;45398;-80
2024/01/17 01:05:09;;;;;;;;;28.25;23.50;;;;;2.85;62.82;99229.91;5138044;27;45388;-81
2024/01/17 01:07:34;;;;;;;;;29.00;27.50;;;;;2.72;64.25;99211.25;5137607;27;45358;-83
2024/01/17 01:09:59;;;;;;;;;37.00;29.25;;;;;2.74;63.81;99212.06;5122323;27;46866;-81
2024/01/17 01:12:25;;;;;;;;;36.00;29.00;;;;;2.65;64.90;99202.81;5117514;27;45313;-82
2024/01/17 01:14:50;;;;;;;;;26.25;24.00;;;;;2.53;65.55;99202.53;5116320;27;56480;-81
2024/01/17 01:17:15;;;;;;;;;31.25;28.75;;;;;2.50;64.95;99192.16;5132218;27;46067;-80
2024/01/17 01:19:40;;;;;;;;;39.50;29.50;;;;;2.57;65.38;99196.19;5116380;27;60185;-81
2024/01/17 01:22:06;;;;;;;;;28.75;25.00;;;;;2.67;65.57;99185.22;5116002;27;46971;-80
2024/01/17 01:24:31;;;;;;;;;30.25;29.75;;;;;2.66;65.33;99182.66;5116528;27;48448;-81
2024/01/17 01:26:56;;;;;;;;;39.00;32.00;;;;;2.52;66.40;99154.44;5116389;27;45948;-81
2024/01/17 01:29:22;;;;;;;;;34.50;26.25;;;;;2.68;66.78;99170.31;5115327;27;45445;-79
2024/01/17 01:31:47;;;;;;;;;42.00;29.25;;;;;2.73;66.20;99164.84;5118092;27;45380;-80
2024/01/17 01:34:12;;;;;;;;;25.75;23.75;;;;;2.74;66.36;99153.44;5118904;27;61548;-79
2024/01/17 01:36:38;;;;;;;;;39.75;33.00;;;;;2.61;67.36;99133.03;5125028;27;45838;-78
2024/01/17 01:39:03;;;;;;;;;22.25;17.75;;;;;2.49;66.14;99124.88;5119795;27;45310;-81
2024/01/17 01:41:28;;;;;;;;;34.25;29.75;;;;;2.68;66.98;99144.06;5130376;27;45421;-81
2024/01/17 01:43:53;;;;;;;;;42.00;35.25;;;;;2.64;67.25;99126.78;5132008;27;45432;-81
2024/01/17 01:46:24;;;;;;;;;33.25;28.25;;;;;2.68;67.16;99128.31;5121405;27;45507;-79
2024/01/17 01:48:50;;;;;;;;;39.50;27.75;;;;;2.68;67.27;99117.81;5119721;27;45362;-80
2024/01/17 01:51:16;;;;;;;;;31.75;29.50;;;;;2.60;67.69;99101.56;5119735;27;45503;-81
2024/01/17 01:53:44;;;;;;;;;29.75;28.75;;;;;2.62;67.56;99108.47;5119856;27;45248;-79
2024/01/17 01:56:12;;;;;;;;;41.00;29.75;;;;;2.73;67.73;99107.09;5120376;27;46587;-81
2024/01/17 01:58:41;;;;;;;;;34.75;32.50;;;;;2.69;68.27;99095.88;5133891;27;45377;-81
2024/01/17 02:01:07;;;;;;;;;39.50;29.00;;;;;2.71;69.39;99094.03;5140651;27;45329;-82
2024/01/17 02:03:33;;;;;;;;;46.75;32.75;;;;;2.72;69.21;99087.88;5124215;27;46090;-80
2024/01/17 02:06:00;;;;;;;;;35.25;30.50;;;;;2.67;68.79;99074.13;5139546;27;46192;-80
2024/01/17 02:08:25;;;;;;;;;39.25;34.25;;;;;2.76;69.18;99084.19;5124538;27;45291;-80
2024/01/17 02:10:50;;;;;;;;;36.00;32.00;;;;;2.78;69.46;99077.09;5119318;27;45250;-79
2024/01/17 02:13:16;;;;;;;;;30.75;29.00;;;;;2.78;69.97;99066.59;5119558;27;45564;-81
2024/01/17 02:15:41;;;;;;;;;33.75;31.00;;;;;2.82;70.11;99060.25;5118925;27;46142;-79
2024/01/17 02:18:07;;;;;;;;;21.50;15.75;;;;;2.77;68.54;99038.63;5119110;27;45447;-80
2024/01/17 02:20:32;;;;;;;;;33.50;27.00;;;;;2.80;69.61;99030.59;5119653;27;45329;-80
2024/01/17 02:22:58;;;;;;;;;30.75;26.25;;;;;2.73;70.10;99021.31;5128381;27;45630;-79
2024/01/17 02:25:23;;;;;;;;;30.50;26.25;;;;;2.75;68.97;99009.00;5131090;27;46152;-78
2024/01/17 02:27:48;;;;;;;;;41.00;30.75;;;;;2.76;70.81;99000.19;5118357;27;49126;-80
2024/01/17 02:30:14;;;;;;;;;34.25;29.75;;;;;2.77;69.93;98996.63;5119524;27;57597;-80
2024/01/17 02:32:40;;;;;;;;;40.75;29.50;;;;;2.77;70.73;98994.00;5128298;27;46408;-80
2024/01/17 02:35:05;;;;;;;;;38.25;35.25;;;;;2.66;71.11;98972.69;5120045;27;45933;-79
2024/01/17 02:37:31;;;;;;;;;33.25;27.00;;;;;2.74;71.17;98975.78;5107955;27;45776;-79
2024/01/17 02:39:56;;;;;;;;;29.00;24.00;;;;;2.74;70.80;98969.69;5123219;27;48814;-79
2024/01/17 02:42:21;;;;;;;;;29.75;27.50;;;;;2.80;70.79;98964.13;5117640;27;58270;-80
2024/01/17 02:44:47;;;;;;;;;38.00;31.50;;;;;2.77;71.46;98969.53;5127859;27;45717;-81
2024/01/17 02:47:12;;;;;;;;;38.50;29.50;;;;;2.79;71.25;98958.03;5120950;27;45428;-78
2024/01/17 02:49:38;;;;;;;;;43.00;28.00;;;;;2.76;71.02;98952.09;5119522;27;45380;-80
2024/01/17 02:52:03;;;;;;;;;32.50;28.25;;;;;2.74;71.49;98946.91;5118980;27;45332;-81
2024/01/17 02:54:29;;;;;;;;;37.75;27.75;;;;;2.84;72.73;98955.16;5117182;27;46115;-80
2024/01/17 02:56:55;;;;;;;;;38.00;31.75;;;;;2.84;72.70;98940.25;5115348;27;55665;-81
2024/01/17 02:59:21;;;;;;;;;34.50;27.25;;;;;2.93;72.35;98938.94;5118256;27;45413;-80
2024/01/17 03:01:46;;;;;;;;;36.50;28.50;;;;;2.96;71.17;98939.63;5118285;27;49592;-80
2024/01/17 03:04:12;;;;;;;;;35.25;28.00;;;;;2.95;72.54;98937.94;5118657;27;45395;-80
2024/01/17 03:06:37;;;;;;;;;29.25;25.75;;;;;2.95;72.51;98932.66;5118093;27;46145;-80
2024/01/17 03:09:03;;;;;;;;;31.00;28.75;;;;;2.96;72.37;98934.38;5118372;27;45353;-80
2024/01/17 03:11:29;;;;;;;;;32.25;27.50;;;;;2.92;73.76;98921.50;5118480;27;45527;-80
2024/01/17 03:13:54;;;;;;;;;34.25;22.50;;;;;2.92;73.51;98917.09;5117836;27;46100;-81
2024/01/17 03:16:20;;;;;;;;;37.25;29.25;;;;;2.91;73.88;98904.88;5118215;27;45319;-79
2024/01/17 03:18:46;;;;;;;;;31.50;26.50;;;;;3.00;73.73;98902.72;5117576;27;45463;-80
2024/01/17 03:21:13;;;;;;;;;33.00;27.25;;;;;3.03;73.74;98897.31;5119463;27;45226;-80
2024/01/17 03:23:38;;;;;;;;;25.75;24.25;;;;;3.00;73.51;98892.22;5117876;27;46147;-81
2024/01/17 03:26:04;;;;;;;;;31.00;29.00;;;;;2.97;73.05;98894.06;5117891;27;57530;-80
2024/01/17 03:28:29;;;;;;;;;37.00;29.75;;;;;2.92;73.65;98887.34;5118465;27;45678;-82
2024/01/17 03:30:54;;;;;;;;;30.50;24.50;;;;;2.91;73.98;98881.25;5118240;27;45320;-82
2024/01/17 03:33:19;;;;;;;;;35.50;25.00;;;;;2.94;74.59;98878.47;5117113;27;66228;-82
2024/01/17 03:35:45;;;;;;;;;29.50;27.75;;;;;2.93;74.67;98855.75;5121582;27;59422;-81
2024/01/17 03:38:10;;;;;;;;;30.75;27.00;;;;;2.97;74.87;98862.53;5117101;27;59000;-80
2024/01/17 03:40:35;;;;;;;;;34.25;27.75;;;;;3.01;74.82;98854.53;5118302;27;45527;-80
2024/01/17 03:43:01;;;;;;;;;31.75;27.75;;;;;2.99;74.62;98828.31;5117619;27;59430;-83
2024/01/17 03:45:26;;;;;;;;;36.00;29.25;;;;;3.03;75.26;98829.88;5134060;27;45416;-79
2024/01/17 03:47:52;;;;;;;;;30.50;28.75;;;;;3.00;75.94;98823.94;5130345;27;55234;-80
2024/01/17 03:50:18;;;;;;;;;36.25;27.50;;;;;2.97;75.74;98823.16;5119079;27;45422;-80
2024/01/17 03:52:43;;;;;;;;;32.00;26.50;;;;;2.89;75.53;98796.47;5133371;27;46718;-82
2024/01/17 03:55:09;;;;;;;;;36.50;30.50;;;;;2.94;76.33;98781.31;5120398;27;45303;-82
2024/01/17 03:57:34;;;;;;;;;30.00;28.25;;;;;3.08;76.82;98798.09;5123560;27;45292;-82
2024/01/17 04:00:00;;;;;;;;;30.75;30.00;;;;;3.05;76.03;98790.38;5116843;27;45320;-83
2024/01/17 04:02:25;;;;;;;;;37.00;27.75;;;;;3.11;75.36;98780.38;5119410;27;46214;-81
2024/01/17 04:04:51;;;;;;;;;27.25;22.50;;;;;3.12;76.45;98762.84;5138040;27;64866;-81
2024/01/17 04:07:20;;;;;;;;;25.00;22.00;;;;;3.08;77.09;98761.31;5119962;27;45819;-79
2024/01/17 04:09:46;;;;;;;;;39.50;34.50;;;;;3.04;76.95;98747.53;5118069;27;45469;-82
2024/01/17 04:12:12;;;;;;;;;40.25;37.75;;;;;2.97;77.42;98746.16;5117729;27;45521;-81
2024/01/17 04:14:37;;;;;;;;;33.50;33.50;;;;;2.99;77.47;98738.19;5117526;27;49151;-79
2024/01/17 04:17:02;;;;;;;;;41.75;37.25;;;;;3.00;77.28;98726.78;5117638;27;45475;-80
2024/01/17 04:19:28;;;;;;;;;42.75;37.00;;;;;3.05;77.97;98722.97;5121346;27;45620;-81
2024/01/17 04:21:57;;;;;;;;;36.25;34.25;;;;;3.07;77.68;98707.09;5116968;27;46038;-80
2024/01/17 04:24:25;;;;;;;;;38.25;33.25;;;;;3.04;77.75;98695.00;5117455;27;45437;-80
2024/01/17 04:26:53;;;;;;;;;36.75;30.50;;;;;3.10;77.30;98693.81;5117409;27;45370;-82
2024/01/17 04:29:19;;;;;;;;;32.25;26.50;;;;;3.03;77.21;98667.06;5117721;27;45351;-81
2024/01/17 04:31:44;;;;;;;;;40.25;37.50;;;;;3.06;77.53;98658.16;5117914;27;69940;-80
2024/01/17 04:34:09;;;;;;;;;51.25;36.00;;;;;3.11;77.40;98675.31;5122515;27;51480;-80
2024/01/17 04:36:35;;;;;;;;;40.00;36.00;;;;;3.16;77.02;98661.97;5127329;27;45655;-80
2024/01/17 04:39:00;;;;;;;;;34.00;32.50;;;;;3.14;77.64;98648.06;5123768;27;53459;-81
2024/01/17 04:41:26;;;;;;;;;35.00;31.50;;;;;3.15;77.14;98640.09;5121584;27;45665;-82
2024/01/17 04:43:51;;;;;;;;;35.75;31.75;;;;;3.12;77.20;98640.25;5115603;27;45538;-81
2024/01/17 04:46:17;;;;;;;;;27.25;23.75;;;;;3.13;77.25;98631.47;5122197;27;45441;-79
2024/01/17 04:48:43;;;;;;;;;37.00;31.25;;;;;3.13;77.38;98626.22;5119751;27;45313;-79
2024/01/17 04:51:10;;;;;;;;;37.00;32.75;;;;;3.11;77.41;98616.69;5121644;27;45925;-80
2024/01/17 04:53:37;;;;;;;;;29.00;26.50;;;;;3.14;76.50;98616.56;5117522;27;45430;-79
2024/01/17 04:56:09;;;;;;;;;32.75;32.25;;;;;3.11;76.08;98607.03;5117790;27;45291;-80
2024/01/17 04:58:34;;;;;;;;;35.00;26.75;;;;;3.09;76.88;98592.31;5118257;27;45467;-82
2024/01/17 05:01:01;;;;;;;;;34.00;22.50;;;;;3.08;77.24;98591.47;5120903;27;46333;-81
2024/01/17 05:03:27;;;;;;;;;34.00;27.50;;;;;3.00;77.42;98563.97;5138032;27;45562;-80
2024/01/17 05:05:53;;;;;;;;;41.00;32.25;;;;;3.04;77.49;98573.34;5138205;27;45418;-80
2024/01/17 05:08:18;;;;;;;;;30.75;28.50;;;;;3.01;77.43;98582.28;5123979;27;45511;-80
2024/01/17 05:10:45;;;;;;;;;32.25;30.75;;;;;3.01;78.49;98565.66;5120529;27;45278;-80
2024/01/17 05:13:12;;;;;;;;;35.75;29.75;;;;;2.96;78.96;98581.66;5123888;27;45373;-79
2024/01/17 05:15:38;;;;;;;;;38.75;25.50;;;;;2.87;79.96;98582.22;5140189;27;45332;-80
2024/01/17 05:18:06;;;;;;;;;33.25;29.25;;;;;2.78;79.42;98561.72;5134468;27;45242;-81
2024/01/17 05:20:32;;;;;;;;;28.00;24.25;;;;;2.97;77.82;98578.94;5120573;27;45480;-80
2024/01/17 05:22:57;;;;;;;;;32.50;27.00;;;;;2.99;78.17;98591.13;5121047;27;45471;-82
2024/01/17 05:25:23;;;;;;;;;33.00;28.25;;;;;2.97;78.61;98584.19;5120055;27;45577;-81
2024/01/17 05:27:52;;;;;;;;;30.25;26.75;;;;;2.97;79.45;98581.56;5111537;27;45682;-82
2024/01/17 05:30:18;;;;;;;;;29.00;26.00;;;;;2.96;81.59;98574.63;5118130;27;47094;-80
2024/01/17 05:32:44;;;;;;;;;33.25;28.25;;;;;3.00;79.69;98571.84;5119439;27;45528;-80
2024/01/17 05:35:09;;;;;;;;;29.25;29.25;;;;;3.01;78.84;98547.28;5121146;27;45331;-81
2024/01/17 05:37:38;;;;;;;;;33.25;29.50;;;;;2.97;79.73;98536.94;5131530;27;45410;-82
2024/01/17 05:40:04;;;;;;;;;30.50;27.00;;;;;3.06;79.71;98537.34;5131141;27;45435;-81
2024/01/17 05:42:30;;;;;;;;;24.50;24.50;;;;;3.09;79.85;98531.91;5131144;27;45187;-83
2024/01/17 05:44:55;;;;;;;;;36.25;33.50;;;;;2.91;80.17;98499.69;5119326;27;45579;-81
2024/01/17 05:47:20;;;;;;;;;30.75;27.25;;;;;3.10;80.35;98521.31;5120646;27;45210;-81
2024/01/17 05:49:46;;;;;;;;;34.75;26.25;;;;;3.12;80.30;98515.97;5119064;27;59055;-83
2024/01/17 05:52:12;;;;;;;;;30.50;29.75;;;;;3.17;80.17;98506.06;5110138;27;45225;-83
2024/01/17 05:54:37;;;;;;;;;37.00;26.75;;;;;3.14;79.57;98487.84;5119997;27;45270;-82
2024/01/17 05:57:02;;;;;;;;;28.00;25.50;;;;;3.26;80.12;98487.13;5100735;27;61636;-81
2024/01/17 05:59:28;;;;;;;;;31.25;28.00;;;;;3.25;79.78;98486.28;5120329;27;46233;-82
2024/01/17 06:01:53;;;;;;;;;24.00;19.75;;;;;3.30;79.57;98475.50;5119109;27;45410;-82
2024/01/17 06:04:19;;;;;;;;;33.00;25.75;;;;;3.30;79.03;98475.50;5100920;27;62051;-81
2024/01/17 06:06:44;;;;;;;;;28.50;26.25;;;;;3.23;78.53;98461.03;5119052;27;45483;-82
2024/01/17 06:09:10;;;;;;;;;32.25;24.00;;;;;3.34;79.08;98455.97;5119987;27;64400;-82
2024/01/17 06:11:35;;;;;;;;;32.25;29.00;;;;;3.32;79.97;98436.84;5120137;27;45571;-83
2024/01/17 06:14:01;;;;;;;;;28.25;24.25;;;;;3.30;79.71;98436.09;5119353;27;46051;-83
2024/01/17 06:16:26;;;;;;;;;29.75;26.25;;;;;3.30;79.59;98438.72;5119800;27;45364;-83
2024/01/17 06:18:51;;;;;;;;;33.00;27.25;;;;;3.31;79.96;98422.00;5131454;27;45884;-82
2024/01/17 06:21:17;;;;;;;;;32.00;26.25;;;;;3.22;80.44;98404.16;5131354;27;45379;-79
2024/01/17 06:23:43;;;;;;;;;32.75;25.25;;;;;3.22;80.88;98397.13;5118524;27;45712;-82
2024/01/17 06:26:09;;;;;;;;;36.75;27.50;;;;;3.32;79.58;98389.53;5119586;27;45575;-80
2024/01/17 06:28:35;;;;;;;;;31.25;29.75;;;;;3.32;80.40;98389.53;5126954;27;45520;-82
2024/01/17 06:31:00;;;;;;;;;25.50;20.00;;;;;3.30;80.50;98380.06;5118836;27;45701;-82
2024/01/17 06:33:26;;;;;;;;;26.00;24.00;;;;;3.30;80.48;98375.66;5118791;27;45261;-81
2024/01/17 06:35:51;;;;;;;;;40.25;35.25;;;;;3.23;80.54;98369.09;5122585;27;50426;-81
2024/01/17 06:38:16;;;;;;;;;33.25;30.00;;;;;3.23;81.27;98369.09;5118714;27;45487;-80
2024/01/17 06:40:42;;;;;;;;;33.75;31.25;;;;;3.24;81.56;98358.47;5119206;27;45320;-80
2024/01/17 06:43:07;;;;;;;;;29.00;27.25;;;;;3.30;81.58;98354.66;5119802;27;45499;-81
2024/01/17 06:45:33;;;;;;;;;30.25;28.25;;;;;3.23;82.07;98345.44;5111525;27;45551;-80
2024/01/17 06:48:01;;;;;;;;;34.50;30.50;;;;;3.17;81.88;98344.06;5118425;27;45601;-79
2024/01/17 06:50:26;;;;;;;;;38.75;32.75;;;;;3.14;82.31;98327.66;5120651;27;45547;-79
2024/01/17 06:52:53;;;;;;;;;36.00;32.00;;;;;3.19;82.23;98330.81;5119401;27;45394;-81
2024/01/17 06:55:18;;;;;;;;;47.75;33.00;;;;;3.12;81.35;98313.75;5119256;27;45449;-80
2024/01/17 06:57:44;;;;;;;;;32.25;23.00;;;;;3.12;82.47;98314.59;5119126;27;46007;-82
2024/01/17 07:00:13;;;;;;;;;35.50;31.25;;;;;3.22;82.15;98314.88;5119440;27;45415;-80
2024/01/17 07:02:39;;;;;;;;;28.75;28.75;;;;;3.13;82.74;98304.94;5135881;27;45417;-83
2024/01/17 07:05:05;;;;;;;;;40.50;33.75;;;;;3.04;83.55;98305.50;5140065;27;45323;-82
2024/01/17 07:07:31;;;;;;;;;33.50;28.00;;;;;3.12;83.50;98319.00;5119975;27;46415;-81
2024/01/17 07:09:56;;;;;;;;;31.50;28.00;;;;;3.13;82.35;98308.44;5122413;27;45353;-80
2024/01/17 07:12:21;;;;;;;;;28.25;28.25;;;;;3.23;82.65;98316.56;5126291;27;45342;-82
2024/01/17 07:14:48;;;;;;;;;43.00;38.00;;;;;3.27;82.60;98319.84;5119391;27;45536;-79
2024/01/17 07:17:14;;;;;;;;;33.50;30.25;;;;;3.22;82.60;98309.59;5100395;27;47060;-81
2024/01/17 07:19:39;;;;;;;;;33.75;29.50;;;;;3.22;82.91;98304.34;5118591;27;45385;-80
2024/01/17 07:22:06;;;;;;;;;33.75;28.75;;;;;3.27;82.58;98307.56;5137204;27;45416;-79
2024/01/17 07:24:31;;;;;;;;;30.75;25.00;;;;;3.32;82.60;98292.34;5137393;27;45650;-78
2024/01/17 07:26:56;;;;;;;;;32.75;28.00;;;;;3.25;82.41;98259.50;5138792;27;46120;-79
2024/01/17 07:29:23;;;;;;;;;33.00;30.25;;;;;3.21;82.78;98250.16;5117990;27;45353;-80
2024/01/17 07:31:50;;;;;;;;;29.25;27.50;;;;;3.29;83.09;98263.66;5117765;27;45278;-79
2024/01/17 07:34:15;;;;;;;;;30.25;26.25;;;;;3.23;82.95;98259.59;5122319;27;45626;-79
2024/01/17 07:36:41;;;;;;;;;38.00;30.75;;;;;3.26;83.11;98253.34;5137992;27;61574;-80
2024/01/17 07:39:06;;;;;;;;;28.25;25.75;;;;;3.30;82.77;98259.22;5131063;27;67613;-82
2024/01/17 07:41:32;;;;;;;;;25.25;21.25;;;;;3.30;83.01;98270.59;5136954;27;45615;-79
2024/01/17 07:43:57;;;;;;;;;25.25;20.50;;;;;3.30;83.36;98260.06;5138875;27;45596;-78
2024/01/17 07:46:22;;;;;;;;;26.75;19.25;;;;;3.34;83.08;98243.16;5119736;27;53663;-79
2024/01/17 07:48:48;;;;;;;;;25.50;23.25;;;;;3.34;82.98;98235.28;5122960;27;45511;-80
2024/01/17 07:51:13;;;;;;;;;27.00;22.00;;;;;3.27;83.18;98212.16;5138319;27;48786;-79
2024/01/17 07:53:39;;;;;;;;;24.25;19.25;;;;;3.15;83.98;98183.09;5126456;27;45354;-79
2024/01/17 07:56:04;;;;;;;;;24.25;24.25;;;;;3.21;82.89;98208.13;5123053;27;46068;-80
2024/01/17 07:58:30;;;;;;;;;23.75;20.25;;;;;3.16;82.90;98195.28;5122219;27;45328;-79
2024/01/17 08:00:55;;;;;;;;;17.75;14.50;;;;;3.16;83.47;98200.53;5131596;27;45429;-80
2024/01/17 08:03:21;;;;;;;;;23.50;23.50;;;;;3.19;84.04;98220.50;5117584;27;45641;-79
2024/01/17 08:05:46;;;;;;;;;21.00;21.00;;;;;3.15;83.80;98240.03;5118044;27;46145;-79
2024/01/17 08:08:12;;;;;;;;;19.25;19.25;;;;;3.18;83.58;98218.81;5134032;27;45434;-78
2024/01/17 08:10:38;;;;;;;;;20.00;17.75;;;;;3.23;84.18;98212.31;5118783;27;45276;-80
2024/01/17 08:13:05;;;;;;;;;18.75;18.00;;;;;3.30;84.25;98212.78;5120081;27;45449;-78
2024/01/17 08:15:31;;;;;;;;;18.75;16.00;;;;;3.36;83.29;98196.63;5117699;27;47131;-77
2024/01/17 08:17:56;;;;;;;;;19.75;17.25;;;;;3.36;84.50;98187.91;5116096;27;45678;-81
2024/01/17 08:20:21;;;;;;;;;23.75;21.25;;;;;3.43;84.21;98163.75;5123511;27;45505;-79
2024/01/17 08:22:47;;;;;;;;;19.75;18.75;;;;;3.39;83.03;98133.38;5125308;27;45457;-79
2024/01/17 08:25:13;;;;;;;;;25.50;20.25;;;;;3.46;83.68;98128.56;5100532;27;46498;-80
2024/01/17 08:27:39;;;;;;;;;23.75;16.00;;;;;3.44;83.54;98126.03;5117864;27;45639;-79
2024/01/17 08:30:05;;;;;;;;;25.25;20.50;;;;;3.58;84.97;98121.66;5118184;27;48801;-84
2024/01/17 08:32:31;;;;;;;;;19.00;19.00;;;;;3.64;83.38;98127.31;5130835;27;45576;-79
2024/01/17 08:34:56;;;;;;;;;25.00;17.50;;;;;3.51;84.25;98121.19;5128993;27;46467;-79
2024/01/17 08:37:21;;;;;;;;;20.25;20.25;;;;;3.58;84.30;98127.75;5127667;27;45392;-79
2024/01/17 08:39:47;;;;;;;;;19.75;19.75;;;;;3.49;84.64;98118.66;5118920;27;45439;-78
2024/01/17 08:42:13;;;;;;;;;24.00;22.50;;;;;3.66;85.42;98124.63;5124426;27;45685;-79
2024/01/17 08:44:44;;;;;;;;;26.00;22.25;;;;;3.59;85.26;98107.56;5138751;27;46114;-80
2024/01/17 08:47:10;;;;;;;;;27.75;23.75;;;;;3.67;85.41;98115.78;5112117;27;45452;-84
2024/01/17 08:49:39;;;;;;;;;28.00;21.25;;;;;3.70;85.59;98107.69;5124700;27;45521;-82
2024/01/17 08:52:06;;;;;;;;;23.25;18.00;;;;;3.69;84.85;98095.47;5124456;27;45401;-84
2024/01/17 08:54:31;;;;;;;;;22.50;21.75;;;;;3.65;84.43;98080.88;5140072;27;45423;-84
2024/01/17 08:56:56;;;;;;;;;29.75;23.00;;;;;3.64;83.85;98073.91;5127751;27;57037;-83
2024/01/17 08:59:22;;;;;;;;;17.25;17.25;;;;;3.55;85.02;98047.31;5139670;27;45451;-84
2024/01/17 09:01:47;;;;;;;;;24.00;20.25;;;;;3.43;84.18;98034.19;5125374;27;45562;-80
2024/01/17 09:04:12;;;;;;;;;23.00;21.50;;;;;3.58;84.43;98048.06;5123390;27;45964;-81
2024/01/17 09:06:38;;;;;;;;;22.50;21.75;;;;;3.77;84.09;98058.97;5131754;27;54334;-80
2024/01/17 09:09:03;;;;;;;;;18.75;17.00;;;;;3.82;83.90;98057.75;5122521;27;45454;-81
2024/01/17 09:11:29;;;;;;;;;20.50;20.25;;;;;3.84;84.02;98055.00;5128296;27;45574;-79
2024/01/17 09:13:55;;;;;;;;;25.25;19.25;;;;;3.82;83.76;98049.00;5120911;27;45530;-80
2024/01/17 09:16:21;;;;;;;;;23.25;18.25;;;;;3.79;84.26;98041.34;5119968;27;45718;-80
2024/01/17 09:18:46;;;;;;;;;24.25;22.00;;;;;3.77;83.97;98044.06;5119392;27;45516;-81
2024/01/17 09:21:11;;;;;;;;;16.75;14.75;;;;;3.78;84.09;98037.03;5120234;27;45412;-82
2024/01/17 09:23:37;;;;;;;;;24.75;19.50;;;;;3.79;85.30;98028.19;5122913;27;62519;-79
2024/01/17 09:26:03;;;;;;;;;23.25;20.50;;;;;3.79;84.70;98028.19;5120121;27;45542;-83
2024/01/17 09:28:28;;;;;;;;;18.00;15.50;;;;;3.84;84.07;98018.19;5121028;27;45493;-80
2024/01/17 09:30:54;;;;;;;;;20.25;18.50;;;;;3.88;84.36;98018.81;5124020;27;51398;-80
2024/01/17 09:33:19;;;;;;;;;18.50;16.00;;;;;3.82;84.10;98023.56;5128842;27;59963;-80
2024/01/17 09:35:44;;;;;;;;;21.25;18.00;;;;;3.85;84.48;98020.72;5134535;27;46546;-79
2024/01/17 09:38:12;;;;;;;;;16.50;16.50;;;;;3.82;84.50;98015.66;5121971;27;45640;-80
2024/01/17 09:40:38;;;;;;;;;23.50;20.00;;;;;3.87;84.71;98007.44;5120538;27;45432;-81
2024/01/17 09:43:04;;;;;;;;;25.75;20.50;;;;;3.93;84.58;98021.97;5105957;27;47449;-80
2024/01/17 09:45:30;;;;;;;;;20.25;19.50;;;;;3.79;84.76;97999.28;5136117;27;45432;-83
2024/01/17 09:47:56;;;;;;;;;19.75;19.75;;;;;3.81;85.10;97986.88;5125813;27;45334;-81
2024/01/17 09:50:21;;;;;;;;;19.00;16.00;;;;;3.97;84.87;98003.25;5123809;27;45351;-82
2024/01/17 09:52:48;;;;;;;;;17.25;13.25;;;;;4.05;84.56;98000.91;5121765;27;46685;-83
2024/01/17 09:55:18;;;;;;;;;18.75;17.25;;;;;4.02;84.51;97990.59;5123935;27;45385;-81
2024/01/17 09:57:50;;;;;;;;;13.00;12.00;;;;;4.06;83.62;97986.81;5132560;27;45542;-84
2024/01/17 10:00:16;;;;;;;;;17.25;15.25;;;;;4.17;83.72;97993.09;5125042;27;45523;-84
2024/01/17 10:02:42;;;;;;;;;18.00;16.00;;;;;4.06;83.66;97975.47;5131629;27;46366;-83
2024/01/17 10:05:09;;;;;;;;;29.50;22.25;;;;;4.03;84.54;97971.22;5126418;27;45334;-83
2024/01/17 10:07:36;;;;;;;;;18.00;18.00;;;;;4.06;84.21;97989.44;5133621;27;45477;-81
2024/01/17 10:10:02;;;;;;;;;18.25;15.75;;;;;3.96;84.56;97998.94;5119042;27;45369;-84
2024/01/17 10:12:27;;;;;;;;;17.25;15.50;;;;;3.96;84.80;97975.25;5130431;27;45419;-83
2024/01/17 10:14:53;;;;;;;;;26.00;20.75;;;;;4.07;84.24;97953.47;5128981;27;45765;-83
2024/01/17 10:17:19;;;;;;;;;22.00;22.00;;;;;3.95;85.17;97949.91;5126738;27;45361;-82
2024/01/17 10:19:44;;;;;;;;;22.00;21.00;;;;;4.01;85.19;97964.41;5129710;27;45514;-82
2024/01/17 10:22:10;;;;;;;;;23.00;19.25;;;;;4.00;85.38;97937.28;5118542;27;45768;-82
2024/01/17 10:24:37;;;;;;;;;23.25;20.50;;;;;3.93;85.73;97909.75;5124173;27;45470;-82
2024/01/17 10:27:03;;;;;;;;;14.25;13.25;;;;;4.04;84.95;97922.13;5111454;27;45502;-81
2024/01/17 10:29:37;;;;;;;;;16.75;16.50;;;;;4.09;85.55;97927.91;5130935;27;45688;-82
2024/01/17 10:32:03;;;;;;;;;18.50;18.50;;;;;4.07;85.13;97911.38;5123169;27;46538;-82
2024/01/17 10:34:32;;;;;;;;;20.00;17.00;;;;;4.00;85.67;97900.47;5132113;27;45539;-80
2024/01/17 10:36:58;;;;;;;;;22.75;20.00;;;;;4.15;84.85;97901.97;5135259;27;45464;-84
2024/01/17 10:39:27;;;;;;;;;20.75;18.00;;;;;4.01;85.27;97857.44;5126377;27;45401;-83
2024/01/17 10:41:58;;;;;;;;;25.25;21.50;;;;;4.17;85.35;97872.09;5122909;27;45470;-86
2024/01/17 10:44:30;;;;;;;;;19.75;18.00;;;;;4.24;85.16;97897.00;5133516;27;45470;-85
2024/01/17 10:46:55;;;;;;;;;23.00;16.00;;;;;4.21;85.27;97897.22;5131392;27;45514;-83
2024/01/17 10:49:22;;;;;;;;;24.00;19.50;;;;;4.11;85.65;97883.91;5124876;27;45802;-85
2024/01/17 10:52:11;;;;;;;;;20.50;19.75;;;;;4.18;85.67;97892.22;5129777;27;46291;-86
2024/01/17 10:54:46;;;;;;;;;24.50;20.00;;;;;4.22;86.15;97912.06;5128923;27;45439;-83
2024/01/17 10:57:14;;;;;;;;;28.50;25.75;;;;;4.17;86.99;97895.75;5128122;27;45556;-85
2024/01/17 10:59:46;;;;;;;;;27.75;22.00;;;;;4.17;87.12;97895.75;5129620;27;45524;-80
2024/01/17 11:02:22;;;;;;;;;27.00;24.50;;;;;4.22;86.38;97881.34;5127596;27;46780;-81
2024/01/17 11:05:00;;;;;;;;;25.50;22.50;;;;;4.21;86.68;97877.03;5127650;27;45567;-78
2024/01/17 11:07:28;;;;;;;;;14.25;13.00;;;;;4.05;86.46;97868.59;5130962;27;45540;-79
2024/01/17 11:09:54;;;;;;;;;20.00;15.25;;;;;4.22;86.36;97864.72;5123944;27;45267;-79
2024/01/17 11:12:21;;;;;;;;;22.25;17.75;;;;;4.19;86.36;97886.00;5123441;27;45772;-81
2024/01/17 11:14:48;;;;;;;;;18.50;15.00;;;;;4.25;85.76;97830.28;5128850;27;45488;-81
2024/01/17 11:17:15;;;;;;;;;20.50;19.00;;;;;4.24;86.65;97852.28;5127285;27;45504;-79
2024/01/17 11:19:44;;;;;;;;;19.50;14.75;;;;;4.35;86.66;97860.22;5116980;27;45565;-81